Padre Island — WDB4436 — position and weather

sailwx.info

Track history (hours):
 
Tides and Currents Weather Stations Pressure Air Temp Water Temp Dewpoint Dewpoint Depression Visibility Wind Speed Wind Dir Waves Ship Positions

Padre Island

Owner: Great Lakes Dredge & Dock Company, Oak Brook, IL. More information available from US FCC via Universal Licensing System and Coast Guard Vessel Documentation Center.

Last reported at 2016-May-27 17:33 UTC. Time now 2016-May-27 18:12 UTC.
Position N 39°35' W 074°12'.

Length 86 m; draft 19.6 m.

Type: Dredging. MMSI: 367525000.

Date/timePositionNaut miles runAvg speedWind from/ knotsBaromVisibWave heightAir tempDewpointWater temp
2016-May-27 17:33N 39°35' W 074°12'3 3.2
2016-May-27 16:33N 39°37' W 074°09'5 5.5
2016-May-27 15:33N 39°41' W 074°04'5 5.1
2016-May-27 14:33N 39°37' W 074°09'4 4.4
2016-May-27 13:33N 39°34' W 074°13'2 1.5
2016-May-27 12:34N 39°35' W 074°12'2 2.5
2016-May-27 11:33N 39°37' W 074°09'5 5.4
2016-May-27 10:33N 39°41' W 074°04'5 4.9
2016-May-27 09:33N 39°37' W 074°09'4 4.4
2016-May-27 08:33N 39°34' W 074°13'1 0.7
2016-May-27 07:33N 39°35' W 074°12'5 4.8
2016-May-27 06:33N 39°38' W 074°07'4 3.9
2016-May-27 05:33N 39°40' W 074°04'5 5.3
2016-May-27 04:33N 39°37' W 074°09'4 4.1
2016-May-27 03:33N 39°34' W 074°13'1 0.6
2016-May-27 02:33N 39°35' W 074°12'8 8.2
2016-May-27 01:33N 39°40' W 074°04'0 0.2
2016-May-27 00:33N 39°40' W 074°04'9 9.0
2016-May-26 23:33N 39°34' W 074°13'0 0.0
2016-May-26 22:33N 39°34' W 074°13'4 4.2
2016-May-26 21:33N 39°37' W 074°09'5 5.3
2016-May-26 20:33N 39°40' W 074°03'5 4.7
2016-May-26 19:33N 39°38' W 074°08'5 4.7
2016-May-26 18:32N 39°34' W 074°13'1 0.8
2016-May-26 17:33N 39°35' W 074°12'4 4.1
2016-May-26 16:33N 39°38' W 074°08'5 4.5
2016-May-26 15:33N 39°41' W 074°04'5 5.0
2016-May-26 14:33N 39°37' W 074°08'4 4.4
2016-May-26 13:32N 39°34' W 074°13'1 1.2
2016-May-26 12:33N 39°35' W 074°12'6 6.3
2016-May-26 11:33N 39°39' W 074°06'3 2.6
2016-May-26 10:33N 39°41' W 074°03'10 9.6
2016-May-26 09:33N 39°35' W 074°13'0 0.4
2016-May-26 08:33N 39°34' W 074°13'6 5.9
2016-May-26 07:33N 39°38' W 074°07'3 3.4
2016-May-26 06:33N 39°40' W 074°04'7 6.5
2016-May-26 05:33N 39°36' W 074°10'3 2.7
2016-May-26 04:33N 39°34' W 074°13'1 0.9
2016-May-26 03:33N 39°35' W 074°12'6 6.0
2016-May-26 02:33N 39°39' W 074°06'2 2.3
2016-May-26 01:33N 39°40' W 074°04'8 8.3
2016-May-26 00:33N 39°35' W 074°12'1 0.8
2016-May-25 23:33N 39°34' W 074°13'7 7.4
2016-May-25 22:33N 39°39' W 074°06'2 1.6
2016-May-25 21:33N 39°40' W 074°04'9 8.9
2016-May-25 20:33N 39°34' W 074°13'0 0.2
2016-May-25 19:33N 39°34' W 074°13'1 0.7
2016-May-25 18:33N 39°35' W 074°12'2 1.6
2016-May-25 17:33N 39°36' W 074°11'0 0.4
2016-May-25 16:33N 39°35' W 074°11'0 0.4
2016-May-25 15:33N 39°35' W 074°11'1 0.5
2016-May-25 14:10N 39°36' W 074°10'5 7.5
2016-May-25 13:33N 39°39' W 074°06'2 2.4
2016-May-25 12:33N 39°41' W 074°04'3 2.7
2016-May-25 11:33N 39°39' W 074°06'7 6.8
2016-May-25 10:33N 39°34' W 074°13'1 0.9
2016-May-25 09:33N 39°35' W 074°12'9 8.6
2016-May-25 08:33N 39°41' W 074°04'1 0.6
2016-May-25 07:33N 39°40' W 074°04'9 9.1
2016-May-25 06:33N 39°34' W 074°13'0 0.0
2016-May-25 05:33N 39°34' W 074°13'5 5.2
2016-May-25 04:33N 39°38' W 074°08'4 4.1
2016-May-25 03:33N 39°40' W 074°04'6 5.6
2016-May-25 02:33N 39°37' W 074°10'4 3.7
2016-May-25 01:33N 39°34' W 074°13'3 3.1
2016-May-25 00:33N 39°37' W 074°10'6 6.3
2016-May-24 23:33N 39°40' W 074°04'4 4.1
2016-May-24 22:33N 39°38' W 074°08'5 5.2
2016-May-24 21:32N 39°34' W 074°13'3 2.8
2016-May-24 20:33N 39°36' W 074°10'7 6.8
2016-May-24 19:33N 39°41' W 074°04'2 2.3
2016-May-24 18:33N 39°39' W 074°06'7 7.3
2016-May-24 17:33N 39°34' W 074°13'0 0.1
2016-May-24 16:33N 39°34' W 074°13'8 7.9
2016-May-24 15:33N 39°40' W 074°05'1 1.3
2016-May-24 14:33N 39°40' W 074°04'9 8.7
2016-May-24 13:32N 39°35' W 074°13'0 0.4
2016-May-24 12:33N 39°34' W 074°13'5 4.5
2016-May-24 11:34N 39°37' W 074°09'5 4.8
2016-May-24 10:33N 39°40' W 074°04'6 5.7
2016-May-24 09:33N 39°37' W 074°10'4 3.5
2016-May-24 08:33N 39°34' W 074°13'0 0.3
2016-May-24 07:33N 39°35' W 074°13'9 9.0
2016-May-24 06:33N 39°40' W 074°04'0 0.3
2016-May-24 05:33N 39°40' W 074°04'9 9.2
2016-May-24 04:33N 39°34' W 074°13'0 0.1
2016-May-24 03:33N 39°34' W 074°13'4 3.7
2016-May-24 02:33N 39°37' W 074°09'6 5.8
2016-May-24 01:33N 39°41' W 074°04'6 6.3
2016-May-24 00:33N 39°47' W 074°02'10 9.9
2016-May-23 23:33N 39°56' W 073°59'3110.2
2016-May-23 20:33N 40°27' W 073°54'1010.1
2016-May-23 19:33N 40°35' W 074°02'4 4.3
2016-May-23 18:33N 40°39' W 074°02'0 0.0
2016-May-23 17:33N 40°39' W 074°03'0 0.0
2016-May-23 16:33N 40°39' W 074°02'0 0.1
2016-May-23 15:33N 40°39' W 074°02'0 0.0
2016-May-23 14:33N 40°39' W 074°02'0 0.0
2016-May-23 13:34N 40°39' W 074°02'0 0.0
2016-May-23 12:34N 40°39' W 074°02'0 0.0
2016-May-23 11:34N 40°39' W 074°02'2 2.3
2016-May-23 10:34N 40°37' W 074°03'2 1.4
2016-May-23 09:09N 40°35' W 074°01'0 0.0
2016-May-23 08:33N 40°35' W 074°01'0 0.1
2016-May-23 07:30N 40°35' W 074°01'0 0.1
2016-May-23 06:27N 40°35' W 074°01'1 0.6
2016-May-23 05:28N 40°35' W 074°01'0 0.0
2016-May-23 04:31N 40°35' W 074°01'0 0.0
2016-May-23 03:28N 40°35' W 074°01'0 0.0
2016-May-23 02:31N 40°35' W 074°01'0 0.1
2016-May-23 01:31N 40°35' W 074°01'0 0.0
2016-May-23 00:25N 40°35' W 074°01'0 0.0
2016-May-22 23:25N 40°35' W 074°01'0 0.0
2016-May-22 22:22N 40°35' W 074°01'0 0.1
2016-May-22 20:20N 40°35' W 074°01'5 4.9
2016-May-22 19:16N 40°30' W 073°57'33 8.2
2016-May-22 15:15N 39°57' W 073°59'7 9.6
2016-May-22 14:33N 39°51' W 074°00'10 9.5
2016-May-22 13:32N 39°41' W 074°04'6 6.3
2016-May-22 12:33N 39°36' W 074°07'1 1.1
2016-May-22 11:33N 39°35' W 074°08'3 2.6
2016-May-22 10:34N 39°33' W 074°05'1 1.5
2016-May-22 09:34N 39°34' W 074°07'1 1.1
2016-May-22 08:34N 39°35' W 074°07'2 1.6
2016-May-22 07:33N 39°36' W 074°09'2 2.1
2016-May-22 06:34N 39°35' W 074°11'2 1.6
2016-May-22 05:33N 39°34' W 074°13'0 0.0
2016-May-22 04:34N 39°34' W 074°13'6 6.2
2016-May-22 03:33N 39°38' W 074°07'4 3.6
2016-May-22 02:34N 39°41' W 074°03'6 5.6
2016-May-22 01:34N 39°37' W 074°09'4 4.3
2016-May-22 00:33N 39°34' W 074°13'3 2.9
2016-May-21 23:34N 39°36' W 074°10'7 7.2
2016-May-21 22:33N 39°41' W 074°03'2 2.0
2016-May-21 21:34N 39°39' W 074°05'8 8.1
2016-May-21 20:34N 39°34' W 074°13'0 0.0
2016-May-21 19:34N 39°34' W 074°13'1 0.6
2016-May-21 18:33N 39°35' W 074°12'7 7.1
2016-May-21 17:34N 39°39' W 074°05'2 1.8
2016-May-21 16:34N 39°40' W 074°04'7 6.7
2016-May-21 15:33N 39°36' W 074°10'3 2.7
2016-May-21 14:34N 39°34' W 074°13'1 1.0
2016-May-21 13:33N 39°35' W 074°12'9 8.8
2016-May-21 12:34N 39°41' W 074°03'1 0.9
2016-May-21 11:33N 39°40' W 074°04'9 8.9
2016-May-21 10:34N 39°34' W 074°13'0 0.0
2016-May-21 09:34N 39°34' W 074°13'4 3.9
2016-May-21 08:34N 39°37' W 074°09'6 5.8
2016-May-21 07:33N 39°41' W 074°04'4 4.1
2016-May-21 06:33N 39°38' W 074°07'5 5.5
2016-May-21 05:33N 39°34' W 074°13'0 0.1
2016-May-21 04:33N 39°34' W 074°13'5 5.1
2016-May-21 03:33N 39°38' W 074°08'4 4.0
2016-May-21 02:33N 39°40' W 074°04'7 6.9
2016-May-21 01:33N 39°36' W 074°11'2 2.3
2016-May-21 00:33N 39°34' W 074°13'3 3.3
2016-May-20 23:33N 39°37' W 074°10'6 6.2
2016-May-20 22:33N 39°41' W 074°04'4 3.7
2016-May-20 21:34N 39°38' W 074°07'6 5.8
2016-May-20 20:33N 39°34' W 074°13'1 0.5
2016-May-20 19:33N 39°35' W 074°13'5 5.1
2016-May-20 18:34N 39°38' W 074°07'4 3.8
2016-May-20 17:34N 39°41' W 074°04'7 6.5
2016-May-20 16:33N 39°36' W 074°10'3 2.9
2016-May-20 15:34N 39°34' W 074°13'1 0.6
2016-May-20 14:34N 39°34' W 074°12'8 8.4
2016-May-20 13:34N 39°40' W 074°04'0 0.3
2016-May-20 12:34N 39°40' W 074°04'9 9.1
2016-May-20 11:33N 39°34' W 074°13'0 0.1
2016-May-20 10:34N 39°34' W 074°13'6 5.5
2016-May-20 09:34N 39°38' W 074°08'4 3.9
2016-May-20 08:34N 39°41' W 074°04'6 5.6
2016-May-20 07:33N 39°37' W 074°09'4 3.8
2016-May-20 06:34N 39°34' W 074°13'0 0.4
2016-May-20 05:34N 39°35' W 074°13'3 3.4
2016-May-20 04:33N 39°37' W 074°09'6 5.5
2016-May-20 03:33N 39°41' W 074°04'5 5.1
2016-May-20 02:33N 39°37' W 074°09'4 4.2
2016-May-20 01:31N 39°34' W 074°13'1 1.2
2016-May-20 00:33N 39°35' W 074°12'8 7.8
2016-May-19 23:34N 39°40' W 074°04'0 0.3
2016-May-19 22:33N 39°40' W 074°04'9 9.3
2016-May-19 21:33N 39°34' W 074°13'0 0.1
2016-May-19 20:33N 39°34' W 074°13'2 2.3
2016-May-19 19:34N 39°36' W 074°11'7 7.3
2016-May-19 18:33N 39°41' W 074°04'2 2.4
2016-May-19 17:34N 39°39' W 074°05'7 7.4
2016-May-19 16:34N 39°34' W 074°13'0 0.0
2016-May-19 15:34N 39°34' W 074°13'2 2.4
2016-May-19 14:33N 39°36' W 074°11'7 7.0
2016-May-19 13:33N 39°40' W 074°04'4 4.0
2016-May-19 12:33N 39°38' W 074°08'5 5.2
2016-May-19 11:30N 39°34' W 074°13'0 0.1
2016-May-19 10:33N 39°34' W 074°13'6 5.8
2016-May-19 09:33N 39°38' W 074°07'4 3.6
2016-May-19 08:33N 39°41' W 074°04'6 6.3
2016-May-19 07:33N 39°36' W 074°09'3 3.3
2016-May-19 06:33N 39°34' W 074°13'0 0.4
2016-May-19 05:33N 39°35' W 074°13'6 6.2
2016-May-19 04:34N 39°39' W 074°07'3 2.6
2016-May-19 03:32N 39°40' W 074°04'7 7.4
2016-May-19 02:34N 39°36' W 074°11'2 2.0
2016-May-19 01:34N 39°34' W 074°13'5 5.3
2016-May-19 00:33N 39°38' W 074°08'4 4.0
2016-May-18 23:33N 39°40' W 074°04'7 7.2
2016-May-18 22:33N 39°36' W 074°11'2 2.1
2016-May-18 21:34N 39°34' W 074°13'5 5.0
2016-May-18 20:33N 39°37' W 074°08'5 4.5
2016-May-18 19:33N 39°41' W 074°04'3 3.1
2016-May-18 18:33N 39°38' W 074°06'6 6.5
2016-May-18 17:33N 39°34' W 074°13'0 0.0
2016-May-18 16:33N 39°34' W 074°13'1 0.6
2016-May-18 15:33N 39°35' W 074°13'6 5.7
2016-May-18 14:33N 39°38' W 074°07'4 3.7
2016-May-18 13:32N 39°41' W 074°03'6 6.3
2016-May-18 12:32N 39°37' W 074°10'4 3.5
2016-May-18 11:33N 39°34' W 074°13'3 3.2
2016-May-18 10:33N 39°36' W 074°10'6 6.3
2016-May-18 09:33N 39°41' W 074°04'2 2.1
2016-May-18 08:33N 39°39' W 074°06'7 7.4
2016-May-18 07:33N 39°34' W 074°13'0 0.1
2016-May-18 06:33N 39°34' W 074°13'5 5.3
2016-May-18 05:32N 39°38' W 074°08'4 4.3
2016-May-18 04:32N 39°41' W 074°04'6 5.8
2016-May-18 03:33N 39°37' W 074°09'4 3.9
2016-May-18 02:31N 39°34' W 074°13'2 2.2
2016-May-18 01:33N 39°36' W 074°11'8 7.7
2016-May-18 00:33N 39°41' W 074°03'2 1.5
2016-May-17 23:33N 39°40' W 074°05'8 8.3
2016-May-17 22:33N 39°34' W 074°13'0 0.1
2016-May-17 21:33N 39°34' W 074°13'9 9.1
2016-May-17 20:33N 39°40' W 074°04'0 0.1
2016-May-17 19:33N 39°40' W 074°04'9 9.1
2016-May-17 18:33N 39°34' W 074°13'0 0.1
2016-May-17 17:33N 39°34' W 074°13'  
Track history (hours):
 
Tides and Currents Weather Stations Pressure Air Temp Water Temp Dewpoint Dewpoint Depression Visibility Wind Speed Wind Dir Waves Ship Positions

Padre Island

Owner: Great Lakes Dredge & Dock Company, Oak Brook, IL. More information available from US FCC via Universal Licensing System and Coast Guard Vessel Documentation Center.

Last reported at 2016-May-27 17:33 UTC. Time now 2016-May-27 18:12 UTC.
Position N 39°35' W 074°12'.

Length 86 m; draft 19.6 m.

Type: Dredging. MMSI: 367525000.

Date/timePositionNaut miles runAvg speedWind from/ knotsBaromVisibWave heightAir tempDewpointWater temp
2016-May-27 17:33N 39°35' W 074°12'3 3.2
2016-May-27 16:33N 39°37' W 074°09'5 5.5
2016-May-27 15:33N 39°41' W 074°04'5 5.1
2016-May-27 14:33N 39°37' W 074°09'4 4.4
2016-May-27 13:33N 39°34' W 074°13'2 1.5
2016-May-27 12:34N 39°35' W 074°12'2 2.5
2016-May-27 11:33N 39°37' W 074°09'5 5.4
2016-May-27 10:33N 39°41' W 074°04'5 4.9
2016-May-27 09:33N 39°37' W 074°09'4 4.4
2016-May-27 08:33N 39°34' W 074°13'1 0.7
2016-May-27 07:33N 39°35' W 074°12'5 4.8
2016-May-27 06:33N 39°38' W 074°07'4 3.9
2016-May-27 05:33N 39°40' W 074°04'5 5.3
2016-May-27 04:33N 39°37' W 074°09'4 4.1
2016-May-27 03:33N 39°34' W 074°13'1 0.6
2016-May-27 02:33N 39°35' W 074°12'8 8.2
2016-May-27 01:33N 39°40' W 074°04'0 0.2
2016-May-27 00:33N 39°40' W 074°04'9 9.0
2016-May-26 23:33N 39°34' W 074°13'0 0.0
2016-May-26 22:33N 39°34' W 074°13'4 4.2
2016-May-26 21:33N 39°37' W 074°09'5 5.3
2016-May-26 20:33N 39°40' W 074°03'5 4.7
2016-May-26 19:33N 39°38' W 074°08'5 4.7
2016-May-26 18:32N 39°34' W 074°13'1 0.8
2016-May-26 17:33N 39°35' W 074°12'4 4.1
2016-May-26 16:33N 39°38' W 074°08'5 4.5
2016-May-26 15:33N 39°41' W 074°04'5 5.0
2016-May-26 14:33N 39°37' W 074°08'4 4.4
2016-May-26 13:32N 39°34' W 074°13'1 1.2
2016-May-26 12:33N 39°35' W 074°12'6 6.3
2016-May-26 11:33N 39°39' W 074°06'3 2.6
2016-May-26 10:33N 39°41' W 074°03'10 9.6
2016-May-26 09:33N 39°35' W 074°13'0 0.4
2016-May-26 08:33N 39°34' W 074°13'6 5.9
2016-May-26 07:33N 39°38' W 074°07'3 3.4
2016-May-26 06:33N 39°40' W 074°04'7 6.5
2016-May-26 05:33N 39°36' W 074°10'3 2.7
2016-May-26 04:33N 39°34' W 074°13'1 0.9
2016-May-26 03:33N 39°35' W 074°12'6 6.0
2016-May-26 02:33N 39°39' W 074°06'2 2.3
2016-May-26 01:33N 39°40' W 074°04'8 8.3
2016-May-26 00:33N 39°35' W 074°12'1 0.8
2016-May-25 23:33N 39°34' W 074°13'7 7.4
2016-May-25 22:33N 39°39' W 074°06'2 1.6
2016-May-25 21:33N 39°40' W 074°04'9 8.9
2016-May-25 20:33N 39°34' W 074°13'0 0.2
2016-May-25 19:33N 39°34' W 074°13'1 0.7
2016-May-25 18:33N 39°35' W 074°12'2 1.6
2016-May-25 17:33N 39°36' W 074°11'0 0.4
2016-May-25 16:33N 39°35' W 074°11'0 0.4
2016-May-25 15:33N 39°35' W 074°11'1 0.5
2016-May-25 14:10N 39°36' W 074°10'5 7.5
2016-May-25 13:33N 39°39' W 074°06'2 2.4
2016-May-25 12:33N 39°41' W 074°04'3 2.7
2016-May-25 11:33N 39°39' W 074°06'7 6.8
2016-May-25 10:33N 39°34' W 074°13'1 0.9
2016-May-25 09:33N 39°35' W 074°12'9 8.6
2016-May-25 08:33N 39°41' W 074°04'1 0.6
2016-May-25 07:33N 39°40' W 074°04'9 9.1
2016-May-25 06:33N 39°34' W 074°13'0 0.0
2016-May-25 05:33N 39°34' W 074°13'5 5.2
2016-May-25 04:33N 39°38' W 074°08'4 4.1
2016-May-25 03:33N 39°40' W 074°04'6 5.6
2016-May-25 02:33N 39°37' W 074°10'4 3.7
2016-May-25 01:33N 39°34' W 074°13'3 3.1
2016-May-25 00:33N 39°37' W 074°10'6 6.3
2016-May-24 23:33N 39°40' W 074°04'4 4.1
2016-May-24 22:33N 39°38' W 074°08'5 5.2
2016-May-24 21:32N 39°34' W 074°13'3 2.8
2016-May-24 20:33N 39°36' W 074°10'7 6.8
2016-May-24 19:33N 39°41' W 074°04'2 2.3
2016-May-24 18:33N 39°39' W 074°06'7 7.3
2016-May-24 17:33N 39°34' W 074°13'0 0.1
2016-May-24 16:33N 39°34' W 074°13'8 7.9
2016-May-24 15:33N 39°40' W 074°05'1 1.3
2016-May-24 14:33N 39°40' W 074°04'9 8.7
2016-May-24 13:32N 39°35' W 074°13'0 0.4
2016-May-24 12:33N 39°34' W 074°13'5 4.5
2016-May-24 11:34N 39°37' W 074°09'5 4.8
2016-May-24 10:33N 39°40' W 074°04'6 5.7
2016-May-24 09:33N 39°37' W 074°10'4 3.5
2016-May-24 08:33N 39°34' W 074°13'0 0.3
2016-May-24 07:33N 39°35' W 074°13'9 9.0
2016-May-24 06:33N 39°40' W 074°04'0 0.3
2016-May-24 05:33N 39°40' W 074°04'9 9.2
2016-May-24 04:33N 39°34' W 074°13'0 0.1
2016-May-24 03:33N 39°34' W 074°13'4 3.7
2016-May-24 02:33N 39°37' W 074°09'6 5.8
2016-May-24 01:33N 39°41' W 074°04'6 6.3
2016-May-24 00:33N 39°47' W 074°02'10 9.9
2016-May-23 23:33N 39°56' W 073°59'3110.2
2016-May-23 20:33N 40°27' W 073°54'1010.1
2016-May-23 19:33N 40°35' W 074°02'4 4.3
2016-May-23 18:33N 40°39' W 074°02'0 0.0
2016-May-23 17:33N 40°39' W 074°03'0 0.0
2016-May-23 16:33N 40°39' W 074°02'0 0.1
2016-May-23 15:33N 40°39' W 074°02'0 0.0
2016-May-23 14:33N 40°39' W 074°02'0 0.0
2016-May-23 13:34N 40°39' W 074°02'0 0.0
2016-May-23 12:34N 40°39' W 074°02'0 0.0
2016-May-23 11:34N 40°39' W 074°02'2 2.3
2016-May-23 10:34N 40°37' W 074°03'2 1.4
2016-May-23 09:09N 40°35' W 074°01'0 0.0
2016-May-23 08:33N 40°35' W 074°01'0 0.1
2016-May-23 07:30N 40°35' W 074°01'0 0.1
2016-May-23 06:27N 40°35' W 074°01'1 0.6
2016-May-23 05:28N 40°35' W 074°01'0 0.0
2016-May-23 04:31N 40°35' W 074°01'0 0.0
2016-May-23 03:28N 40°35' W 074°01'0 0.0
2016-May-23 02:31N 40°35' W 074°01'0 0.1
2016-May-23 01:31N 40°35' W 074°01'0 0.0
2016-May-23 00:25N 40°35' W 074°01'0 0.0
2016-May-22 23:25N 40°35' W 074°01'0 0.0
2016-May-22 22:22N 40°35' W 074°01'0 0.1
2016-May-22 20:20N 40°35' W 074°01'5 4.9
2016-May-22 19:16N 40°30' W 073°57'33 8.2
2016-May-22 15:15N 39°57' W 073°59'7 9.6
2016-May-22 14:33N 39°51' W 074°00'10 9.5
2016-May-22 13:32N 39°41' W 074°04'6 6.3
2016-May-22 12:33N 39°36' W 074°07'1 1.1
2016-May-22 11:33N 39°35' W 074°08'3 2.6
2016-May-22 10:34N 39°33' W 074°05'1 1.5
2016-May-22 09:34N 39°34' W 074°07'1 1.1
2016-May-22 08:34N 39°35' W 074°07'2 1.6
2016-May-22 07:33N 39°36' W 074°09'2 2.1
2016-May-22 06:34N 39°35' W 074°11'2 1.6
2016-May-22 05:33N 39°34' W 074°13'0 0.0
2016-May-22 04:34N 39°34' W 074°13'6 6.2
2016-May-22 03:33N 39°38' W 074°07'4 3.6
2016-May-22 02:34N 39°41' W 074°03'6 5.6
2016-May-22 01:34N 39°37' W 074°09'4 4.3
2016-May-22 00:33N 39°34' W 074°13'3 2.9
2016-May-21 23:34N 39°36' W 074°10'7 7.2
2016-May-21 22:33N 39°41' W 074°03'2 2.0
2016-May-21 21:34N 39°39' W 074°05'8 8.1
2016-May-21 20:34N 39°34' W 074°13'0 0.0
2016-May-21 19:34N 39°34' W 074°13'1 0.6
2016-May-21 18:33N 39°35' W 074°12'7 7.1
2016-May-21 17:34N 39°39' W 074°05'2 1.8
2016-May-21 16:34N 39°40' W 074°04'7 6.7
2016-May-21 15:33N 39°36' W 074°10'3 2.7
2016-May-21 14:34N 39°34' W 074°13'1 1.0
2016-May-21 13:33N 39°35' W 074°12'9 8.8
2016-May-21 12:34N 39°41' W 074°03'1 0.9
2016-May-21 11:33N 39°40' W 074°04'9 8.9
2016-May-21 10:34N 39°34' W 074°13'0 0.0
2016-May-21 09:34N 39°34' W 074°13'4 3.9
2016-May-21 08:34N 39°37' W 074°09'6 5.8
2016-May-21 07:33N 39°41' W 074°04'4 4.1
2016-May-21 06:33N 39°38' W 074°07'5 5.5
2016-May-21 05:33N 39°34' W 074°13'0 0.1
2016-May-21 04:33N 39°34' W 074°13'5 5.1
2016-May-21 03:33N 39°38' W 074°08'4 4.0
2016-May-21 02:33N 39°40' W 074°04'7 6.9
2016-May-21 01:33N 39°36' W 074°11'2 2.3
2016-May-21 00:33N 39°34' W 074°13'3 3.3
2016-May-20 23:33N 39°37' W 074°10'6 6.2
2016-May-20 22:33N 39°41' W 074°04'4 3.7
2016-May-20 21:34N 39°38' W 074°07'6 5.8
2016-May-20 20:33N 39°34' W 074°13'1 0.5
2016-May-20 19:33N 39°35' W 074°13'5 5.1
2016-May-20 18:34N 39°38' W 074°07'4 3.8
2016-May-20 17:34N 39°41' W 074°04'7 6.5
2016-May-20 16:33N 39°36' W 074°10'3 2.9
2016-May-20 15:34N 39°34' W 074°13'1 0.6
2016-May-20 14:34N 39°34' W 074°12'8 8.4
2016-May-20 13:34N 39°40' W 074°04'0 0.3
2016-May-20 12:34N 39°40' W 074°04'9 9.1
2016-May-20 11:33N 39°34' W 074°13'0 0.1
2016-May-20 10:34N 39°34' W 074°13'6 5.5
2016-May-20 09:34N 39°38' W 074°08'4 3.9
2016-May-20 08:34N 39°41' W 074°04'6 5.6
2016-May-20 07:33N 39°37' W 074°09'4 3.8
2016-May-20 06:34N 39°34' W 074°13'0 0.4
2016-May-20 05:34N 39°35' W 074°13'3 3.4
2016-May-20 04:33N 39°37' W 074°09'6 5.5
2016-May-20 03:33N 39°41' W 074°04'5 5.1
2016-May-20 02:33N 39°37' W 074°09'4 4.2
2016-May-20 01:31N 39°34' W 074°13'1 1.2
2016-May-20 00:33N 39°35' W 074°12'8 7.8
2016-May-19 23:34N 39°40' W 074°04'0 0.3
2016-May-19 22:33N 39°40' W 074°04'9 9.3
2016-May-19 21:33N 39°34' W 074°13'0 0.1
2016-May-19 20:33N 39°34' W 074°13'2 2.3
2016-May-19 19:34N 39°36' W 074°11'7 7.3
2016-May-19 18:33N 39°41' W 074°04'2 2.4
2016-May-19 17:34N 39°39' W 074°05'7 7.4
2016-May-19 16:34N 39°34' W 074°13'0 0.0
2016-May-19 15:34N 39°34' W 074°13'2 2.4
2016-May-19 14:33N 39°36' W 074°11'7 7.0
2016-May-19 13:33N 39°40' W 074°04'4 4.0
2016-May-19 12:33N 39°38' W 074°08'5 5.2
2016-May-19 11:30N 39°34' W 074°13'0 0.1
2016-May-19 10:33N 39°34' W 074°13'6 5.8
2016-May-19 09:33N 39°38' W 074°07'4 3.6
2016-May-19 08:33N 39°41' W 074°04'6 6.3
2016-May-19 07:33N 39°36' W 074°09'3 3.3
2016-May-19 06:33N 39°34' W 074°13'0 0.4
2016-May-19 05:33N 39°35' W 074°13'6 6.2
2016-May-19 04:34N 39°39' W 074°07'3 2.6
2016-May-19 03:32N 39°40' W 074°04'7 7.4
2016-May-19 02:34N 39°36' W 074°11'2 2.0
2016-May-19 01:34N 39°34' W 074°13'5 5.3
2016-May-19 00:33N 39°38' W 074°08'4 4.0
2016-May-18 23:33N 39°40' W 074°04'7 7.2
2016-May-18 22:33N 39°36' W 074°11'2 2.1
2016-May-18 21:34N 39°34' W 074°13'5 5.0
2016-May-18 20:33N 39°37' W 074°08'5 4.5
2016-May-18 19:33N 39°41' W 074°04'3 3.1
2016-May-18 18:33N 39°38' W 074°06'6 6.5
2016-May-18 17:33N 39°34' W 074°13'0 0.0
2016-May-18 16:33N 39°34' W 074°13'1 0.6
2016-May-18 15:33N 39°35' W 074°13'6 5.7
2016-May-18 14:33N 39°38' W 074°07'4 3.7
2016-May-18 13:32N 39°41' W 074°03'6 6.3
2016-May-18 12:32N 39°37' W 074°10'4 3.5
2016-May-18 11:33N 39°34' W 074°13'3 3.2
2016-May-18 10:33N 39°36' W 074°10'6 6.3
2016-May-18 09:33N 39°41' W 074°04'2 2.1
2016-May-18 08:33N 39°39' W 074°06'7 7.4
2016-May-18 07:33N 39°34' W 074°13'0 0.1
2016-May-18 06:33N 39°34' W 074°13'5 5.3
2016-May-18 05:32N 39°38' W 074°08'4 4.3
2016-May-18 04:32N 39°41' W 074°04'6 5.8
2016-May-18 03:33N 39°37' W 074°09'4 3.9
2016-May-18 02:31N 39°34' W 074°13'2 2.2
2016-May-18 01:33N 39°36' W 074°11'8 7.7
2016-May-18 00:33N 39°41' W 074°03'2 1.5
2016-May-17 23:33N 39°40' W 074°05'8 8.3
2016-May-17 22:33N 39°34' W 074°13'0 0.1
2016-May-17 21:33N 39°34' W 074°13'9 9.1
2016-May-17 20:33N 39°40' W 074°04'0 0.1
2016-May-17 19:33N 39°40' W 074°04'9 9.1
2016-May-17 18:33N 39°34' W 074°13'0 0.1
2016-May-17 17:33N 39°34' W 074°13'  

Dump ship's entire track history